sensor_id;sensor_type;location;lat;lon;timestamp;P1;durP1;ratioP1;P2;durP2;ratioP2
21798;SDS011;24973;47.178;15.316;2022-11-24T00:01:49;3.73;;;2.27;;
21798;SDS011;24973;47.178;15.316;2022-11-24T00:04:37;3.43;;;2.07;;
21798;SDS011;24973;47.178;15.316;2022-11-24T00:07:26;2.93;;;2.50;;
21798;SDS011;24973;47.178;15.316;2022-11-24T00:10:15;2.20;;;2.00;;
21798;SDS011;24973;47.178;15.316;2022-11-24T00:13:04;2.43;;;1.90;;
21798;SDS011;24973;47.178;15.316;2022-11-24T00:15:52;0.97;;;0.90;;
21798;SDS011;24973;47.178;15.316;2022-11-24T00:18:43;2.10;;;1.93;;
21798;SDS011;24973;47.178;15.316;2022-11-24T00:21:33;1.37;;;1.13;;
21798;SDS011;24973;47.178;15.316;2022-11-24T00:24:23;2.33;;;1.57;;
21798;SDS011;24973;47.178;15.316;2022-11-24T00:27:12;1.60;;;1.50;;
21798;SDS011;24973;47.178;15.316;2022-11-24T00:30:00;3.23;;;1.73;;
21798;SDS011;24973;47.178;15.316;2022-11-24T00:32:49;3.90;;;2.00;;
21798;SDS011;24973;47.178;15.316;2022-11-24T00:35:41;2.73;;;2.40;;
21798;SDS011;24973;47.178;15.316;2022-11-24T00:38:29;1.93;;;1.47;;
21798;SDS011;24973;47.178;15.316;2022-11-24T00:41:18;1.60;;;1.50;;
21798;SDS011;24973;47.178;15.316;2022-11-24T00:44:07;2.07;;;1.90;;
21798;SDS011;24973;47.178;15.316;2022-11-24T00:46:56;2.07;;;1.90;;
21798;SDS011;24973;47.178;15.316;2022-11-24T00:49:44;2.03;;;1.37;;
21798;SDS011;24973;47.178;15.316;2022-11-24T00:52:34;2.00;;;1.70;;
21798;SDS011;24973;47.178;15.316;2022-11-24T00:55:23;2.73;;;1.30;;
21798;SDS011;24973;47.178;15.316;2022-11-24T00:58:11;3.93;;;1.97;;
21798;SDS011;24973;47.178;15.316;2022-11-24T01:01:00;3.27;;;1.90;;
21798;SDS011;24973;47.178;15.316;2022-11-24T01:03:52;2.30;;;1.70;;
21798;SDS011;24973;47.178;15.316;2022-11-24T01:06:41;2.60;;;1.80;;
21798;SDS011;24973;47.178;15.316;2022-11-24T01:09:31;2.27;;;1.73;;
21798;SDS011;24973;47.178;15.316;2022-11-24T01:12:20;3.13;;;1.73;;
21798;SDS011;24973;47.178;15.316;2022-11-24T01:15:08;2.17;;;1.67;;
21798;SDS011;24973;47.178;15.316;2022-11-24T01:17:57;2.80;;;1.63;;
21798;SDS011;24973;47.178;15.316;2022-11-24T01:20:46;1.40;;;1.30;;
21798;SDS011;24973;47.178;15.316;2022-11-24T01:23:34;1.47;;;1.33;;
21798;SDS011;24973;47.178;15.316;2022-11-24T01:26:24;2.30;;;1.90;;
21798;SDS011;24973;47.178;15.316;2022-11-24T01:29:13;1.37;;;1.27;;
21798;SDS011;24973;47.178;15.316;2022-11-24T01:32:02;1.87;;;1.77;;
21798;SDS011;24973;47.178;15.316;2022-11-24T01:34:51;1.90;;;1.80;;
21798;SDS011;24973;47.178;15.316;2022-11-24T01:37:40;2.30;;;1.50;;
21798;SDS011;24973;47.178;15.316;2022-11-24T01:40:28;2.60;;;1.77;;
21798;SDS011;24973;47.178;15.316;2022-11-24T01:43:20;1.77;;;1.67;;
21798;SDS011;24973;47.178;15.316;2022-11-24T01:46:12;2.03;;;1.93;;
21798;SDS011;24973;47.178;15.316;2022-11-24T01:49:08;7.37;;;2.17;;
21798;SDS011;24973;47.178;15.316;2022-11-24T01:52:02;6.83;;;2.07;;
21798;SDS011;24973;47.178;15.316;2022-11-24T01:54:57;1.90;;;1.70;;
21798;SDS011;24973;47.178;15.316;2022-11-24T01:57:50;1.30;;;1.20;;
21798;SDS011;24973;47.178;15.316;2022-11-24T02:00:45;1.57;;;1.47;;
21798;SDS011;24973;47.178;15.316;2022-11-24T02:03:34;2.97;;;1.97;;
21798;SDS011;24973;47.178;15.316;2022-11-24T02:06:26;1.93;;;1.83;;
21798;SDS011;24973;47.178;15.316;2022-11-24T02:09:18;1.93;;;1.57;;
21798;SDS011;24973;47.178;15.316;2022-11-24T02:12:12;1.70;;;1.33;;
21798;SDS011;24973;47.178;15.316;2022-11-24T02:15:00;1.57;;;1.47;;
21798;SDS011;24973;47.178;15.316;2022-11-24T02:17:51;2.17;;;1.90;;
21798;SDS011;24973;47.178;15.316;2022-11-24T02:20:39;6.20;;;1.80;;
21798;SDS011;24973;47.178;15.316;2022-11-24T02:23:29;1.67;;;1.57;;
21798;SDS011;24973;47.178;15.316;2022-11-24T02:26:41;4.10;;;1.87;;
21798;SDS011;24973;47.178;15.316;2022-11-24T02:29:32;1.83;;;1.57;;
21798;SDS011;24973;47.178;15.316;2022-11-24T02:32:20;1.67;;;1.50;;
21798;SDS011;24973;47.178;15.316;2022-11-24T02:35:10;1.37;;;1.27;;
21798;SDS011;24973;47.178;15.316;2022-11-24T02:38:00;1.27;;;1.17;;
21798;SDS011;24973;47.178;15.316;2022-11-24T02:40:48;2.03;;;1.20;;
21798;SDS011;24973;47.178;15.316;2022-11-24T02:43:39;1.93;;;1.57;;
21798;SDS011;24973;47.178;15.316;2022-11-24T02:46:32;1.20;;;1.03;;
21798;SDS011;24973;47.178;15.316;2022-11-24T02:49:21;1.00;;;1.00;;
21798;SDS011;24973;47.178;15.316;2022-11-24T02:52:10;1.53;;;1.43;;
21798;SDS011;24973;47.178;15.316;2022-11-24T02:54:58;2.17;;;1.60;;
21798;SDS011;24973;47.178;15.316;2022-11-24T02:57:47;2.00;;;1.23;;
21798;SDS011;24973;47.178;15.316;2022-11-24T03:00:37;0.70;;;0.70;;
21798;SDS011;24973;47.178;15.316;2022-11-24T03:03:26;1.07;;;1.07;;
21798;SDS011;24973;47.178;15.316;2022-11-24T03:06:14;1.57;;;1.43;;
21798;SDS011;24973;47.178;15.316;2022-11-24T03:09:03;1.57;;;1.20;;
21798;SDS011;24973;47.178;15.316;2022-11-24T03:11:52;1.20;;;1.10;;
21798;SDS011;24973;47.178;15.316;2022-11-24T03:14:41;1.53;;;1.43;;
21798;SDS011;24973;47.178;15.316;2022-11-24T03:17:31;2.07;;;1.87;;
21798;SDS011;24973;47.178;15.316;2022-11-24T03:20:19;1.27;;;1.17;;
21798;SDS011;24973;47.178;15.316;2022-11-24T03:23:08;1.30;;;1.20;;
21798;SDS011;24973;47.178;15.316;2022-11-24T03:26:05;1.67;;;1.57;;
21798;SDS011;24973;47.178;15.316;2022-11-24T03:28:55;3.17;;;1.50;;
21798;SDS011;24973;47.178;15.316;2022-11-24T03:31:44;2.37;;;1.43;;
21798;SDS011;24973;47.178;15.316;2022-11-24T03:34:34;1.40;;;1.30;;
21798;SDS011;24973;47.178;15.316;2022-11-24T03:37:22;1.40;;;1.30;;
21798;SDS011;24973;47.178;15.316;2022-11-24T03:40:11;1.70;;;1.47;;
21798;SDS011;24973;47.178;15.316;2022-11-24T03:43:00;1.53;;;1.30;;
21798;SDS011;24973;47.178;15.316;2022-11-24T03:45:49;2.00;;;1.57;;
21798;SDS011;24973;47.178;15.316;2022-11-24T03:48:38;1.70;;;1.57;;
21798;SDS011;24973;47.178;15.316;2022-11-24T03:51:28;1.40;;;1.37;;
21798;SDS011;24973;47.178;15.316;2022-11-24T03:54:17;2.77;;;1.50;;
21798;SDS011;24973;47.178;15.316;2022-11-24T03:57:05;2.27;;;2.03;;
21798;SDS011;24973;47.178;15.316;2022-11-24T03:59:54;1.97;;;1.63;;
21798;SDS011;24973;47.178;15.316;2022-11-24T04:02:43;1.63;;;1.53;;
21798;SDS011;24973;47.178;15.316;2022-11-24T04:05:31;0.93;;;0.93;;
21798;SDS011;24973;47.178;15.316;2022-11-24T04:08:23;2.17;;;1.50;;
21798;SDS011;24973;47.178;15.316;2022-11-24T04:11:12;1.43;;;1.33;;
21798;SDS011;24973;47.178;15.316;2022-11-24T04:14:20;1.87;;;1.77;;
21798;SDS011;24973;47.178;15.316;2022-11-24T04:17:08;2.90;;;1.63;;
21798;SDS011;24973;47.178;15.316;2022-11-24T04:19:56;0.70;;;0.70;;
21798;SDS011;24973;47.178;15.316;2022-11-24T04:22:45;1.90;;;1.80;;
21798;SDS011;24973;47.178;15.316;2022-11-24T04:25:35;2.37;;;1.80;;
21798;SDS011;24973;47.178;15.316;2022-11-24T04:28:24;2.57;;;1.40;;
21798;SDS011;24973;47.178;15.316;2022-11-24T04:31:13;1.30;;;1.20;;
21798;SDS011;24973;47.178;15.316;2022-11-24T04:34:02;1.17;;;1.17;;
21798;SDS011;24973;47.178;15.316;2022-11-24T04:36:51;1.17;;;1.10;;
21798;SDS011;24973;47.178;15.316;2022-11-24T04:39:39;1.00;;;1.00;;
21798;SDS011;24973;47.178;15.316;2022-11-24T04:42:29;1.23;;;1.13;;
21798;SDS011;24973;47.178;15.316;2022-11-24T04:45:18;1.17;;;1.07;;
21798;SDS011;24973;47.178;15.316;2022-11-24T04:48:07;1.20;;;0.93;;
21798;SDS011;24973;47.178;15.316;2022-11-24T04:50:56;1.03;;;0.93;;
21798;SDS011;24973;47.178;15.316;2022-11-24T04:53:44;1.57;;;1.20;;
21798;SDS011;24973;47.178;15.316;2022-11-24T04:56:35;0.83;;;0.83;;
21798;SDS011;24973;47.178;15.316;2022-11-24T04:59:25;1.43;;;1.33;;
21798;SDS011;24973;47.178;15.316;2022-11-24T05:02:14;4.70;;;1.53;;
21798;SDS011;24973;47.178;15.316;2022-11-24T05:05:03;1.53;;;1.43;;
21798;SDS011;24973;47.178;15.316;2022-11-24T05:07:53;1.80;;;1.70;;
21798;SDS011;24973;47.178;15.316;2022-11-24T05:10:42;1.50;;;1.40;;
21798;SDS011;24973;47.178;15.316;2022-11-24T05:13:31;0.97;;;0.90;;
21798;SDS011;24973;47.178;15.316;2022-11-24T05:16:21;1.60;;;1.50;;
21798;SDS011;24973;47.178;15.316;2022-11-24T05:19:10;2.00;;;1.73;;
21798;SDS011;24973;47.178;15.316;2022-11-24T05:21:59;1.40;;;1.07;;
21798;SDS011;24973;47.178;15.316;2022-11-24T05:24:48;1.53;;;1.13;;
21798;SDS011;24973;47.178;15.316;2022-11-24T05:27:37;1.67;;;0.90;;
21798;SDS011;24973;47.178;15.316;2022-11-24T05:30:25;1.33;;;1.23;;
21798;SDS011;24973;47.178;15.316;2022-11-24T05:33:16;1.30;;;1.07;;
21798;SDS011;24973;47.178;15.316;2022-11-24T05:36:06;1.10;;;0.97;;
21798;SDS011;24973;47.178;15.316;2022-11-24T05:39:15;1.50;;;1.30;;
21798;SDS011;24973;47.178;15.316;2022-11-24T05:42:04;1.57;;;1.17;;
21798;SDS011;24973;47.178;15.316;2022-11-24T05:45:10;1.90;;;1.23;;
21798;SDS011;24973;47.178;15.316;2022-11-24T05:48:03;2.03;;;1.60;;
21798;SDS011;24973;47.178;15.316;2022-11-24T05:50:54;1.40;;;1.30;;
21798;SDS011;24973;47.178;15.316;2022-11-24T05:53:44;2.80;;;1.50;;
21798;SDS011;24973;47.178;15.316;2022-11-24T05:56:33;1.13;;;1.03;;
21798;SDS011;24973;47.178;15.316;2022-11-24T05:59:21;3.50;;;2.80;;
21798;SDS011;24973;47.178;15.316;2022-11-24T06:02:10;2.10;;;1.90;;
21798;SDS011;24973;47.178;15.316;2022-11-24T06:04:59;1.87;;;1.77;;
21798;SDS011;24973;47.178;15.316;2022-11-24T06:07:49;5.03;;;1.97;;
21798;SDS011;24973;47.178;15.316;2022-11-24T06:10:38;1.03;;;1.03;;
21798;SDS011;24973;47.178;15.316;2022-11-24T06:13:27;1.80;;;1.43;;
21798;SDS011;24973;47.178;15.316;2022-11-24T06:16:16;1.37;;;1.27;;
21798;SDS011;24973;47.178;15.316;2022-11-24T06:19:05;1.53;;;1.10;;
21798;SDS011;24973;47.178;15.316;2022-11-24T06:21:53;1.20;;;1.10;;
21798;SDS011;24973;47.178;15.316;2022-11-24T06:24:44;1.43;;;1.33;;
21798;SDS011;24973;47.178;15.316;2022-11-24T06:27:35;1.73;;;1.40;;
21798;SDS011;24973;47.178;15.316;2022-11-24T06:30:24;1.77;;;1.67;;
21798;SDS011;24973;47.178;15.316;2022-11-24T06:33:13;4.33;;;2.30;;
21798;SDS011;24973;47.178;15.316;2022-11-24T06:36:02;2.37;;;1.73;;
21798;SDS011;24973;47.178;15.316;2022-11-24T06:38:52;1.60;;;1.50;;
21798;SDS011;24973;47.178;15.316;2022-11-24T06:41:43;2.47;;;2.17;;
21798;SDS011;24973;47.178;15.316;2022-11-24T06:44:31;3.17;;;1.63;;
21798;SDS011;24973;47.178;15.316;2022-11-24T06:47:20;1.73;;;1.33;;
21798;SDS011;24973;47.178;15.316;2022-11-24T06:50:10;2.27;;;2.07;;
21798;SDS011;24973;47.178;15.316;2022-11-24T06:52:59;4.67;;;2.20;;
21798;SDS011;24973;47.178;15.316;2022-11-24T06:55:48;5.63;;;2.30;;
21798;SDS011;24973;47.178;15.316;2022-11-24T06:58:40;10.03;;;6.07;;
21798;SDS011;24973;47.178;15.316;2022-11-24T07:01:30;16.70;;;8.83;;
21798;SDS011;24973;47.178;15.316;2022-11-24T07:04:19;12.50;;;7.97;;
21798;SDS011;24973;47.178;15.316;2022-11-24T07:07:08;7.47;;;3.23;;
21798;SDS011;24973;47.178;15.316;2022-11-24T07:09:56;5.27;;;3.90;;
21798;SDS011;24973;47.178;15.316;2022-11-24T07:12:45;3.70;;;3.17;;
21798;SDS011;24973;47.178;15.316;2022-11-24T07:15:35;3.20;;;2.67;;
21798;SDS011;24973;47.178;15.316;2022-11-24T07:18:24;2.53;;;2.23;;
21798;SDS011;24973;47.178;15.316;2022-11-24T07:21:13;2.30;;;2.10;;
21798;SDS011;24973;47.178;15.316;2022-11-24T07:24:02;3.43;;;1.97;;
21798;SDS011;24973;47.178;15.316;2022-11-24T07:26:52;1.33;;;1.10;;
21798;SDS011;24973;47.178;15.316;2022-11-24T07:29:40;2.00;;;1.13;;
21798;SDS011;24973;47.178;15.316;2022-11-24T07:32:30;2.30;;;2.10;;
21798;SDS011;24973;47.178;15.316;2022-11-24T07:35:19;1.30;;;1.20;;
21798;SDS011;24973;47.178;15.316;2022-11-24T07:38:08;5.17;;;2.50;;
21798;SDS011;24973;47.178;15.316;2022-11-24T07:40:58;2.23;;;1.67;;
21798;SDS011;24973;47.178;15.316;2022-11-24T07:43:47;3.10;;;1.97;;
21798;SDS011;24973;47.178;15.316;2022-11-24T07:46:37;2.87;;;2.60;;
21798;SDS011;24973;47.178;15.316;2022-11-24T07:49:27;2.57;;;2.37;;
21798;SDS011;24973;47.178;15.316;2022-11-24T07:52:15;4.33;;;3.03;;
21798;SDS011;24973;47.178;15.316;2022-11-24T07:55:05;3.13;;;2.57;;
21798;SDS011;24973;47.178;15.316;2022-11-24T07:57:57;6.33;;;4.77;;
21798;SDS011;24973;47.178;15.316;2022-11-24T08:00:47;3.03;;;2.70;;
21798;SDS011;24973;47.178;15.316;2022-11-24T08:03:36;3.40;;;3.10;;
21798;SDS011;24973;47.178;15.316;2022-11-24T08:06:26;3.60;;;3.37;;
21798;SDS011;24973;47.178;15.316;2022-11-24T08:09:21;3.53;;;2.73;;
21798;SDS011;24973;47.178;15.316;2022-11-24T08:12:10;1.87;;;1.23;;
21798;SDS011;24973;47.178;15.316;2022-11-24T08:14:59;2.43;;;1.73;;
21798;SDS011;24973;47.178;15.316;2022-11-24T08:17:48;2.13;;;1.80;;
21798;SDS011;24973;47.178;15.316;2022-11-24T08:20:37;5.93;;;1.37;;
21798;SDS011;24973;47.178;15.316;2022-11-24T08:23:27;1.30;;;1.20;;
21798;SDS011;24973;47.178;15.316;2022-11-24T08:26:17;1.37;;;1.27;;
21798;SDS011;24973;47.178;15.316;2022-11-24T08:29:06;4.50;;;1.60;;
21798;SDS011;24973;47.178;15.316;2022-11-24T08:31:55;1.93;;;1.50;;
21798;SDS011;24973;47.178;15.316;2022-11-24T08:34:44;2.20;;;1.53;;
21798;SDS011;24973;47.178;15.316;2022-11-24T08:37:32;2.07;;;1.63;;
21798;SDS011;24973;47.178;15.316;2022-11-24T08:40:22;6.07;;;1.10;;
21798;SDS011;24973;47.178;15.316;2022-11-24T08:43:11;1.50;;;1.10;;
21798;SDS011;24973;47.178;15.316;2022-11-24T08:46:00;1.90;;;1.80;;
21798;SDS011;24973;47.178;15.316;2022-11-24T08:48:51;3.80;;;3.20;;
21798;SDS011;24973;47.178;15.316;2022-11-24T08:51:41;6.73;;;4.50;;
21798;SDS011;24973;47.178;15.316;2022-11-24T08:54:30;9.20;;;5.60;;
21798;SDS011;24973;47.178;15.316;2022-11-24T08:57:20;13.53;;;6.47;;
21798;SDS011;24973;47.178;15.316;2022-11-24T09:00:10;8.23;;;6.13;;
21798;SDS011;24973;47.178;15.316;2022-11-24T09:03:08;6.30;;;5.10;;
21798;SDS011;24973;47.178;15.316;2022-11-24T09:05:58;2.43;;;2.23;;
21798;SDS011;24973;47.178;15.316;2022-11-24T09:08:47;3.27;;;2.87;;
21798;SDS011;24973;47.178;15.316;2022-11-24T09:11:36;8.90;;;4.13;;
21798;SDS011;24973;47.178;15.316;2022-11-24T09:14:27;3.93;;;3.53;;
21798;SDS011;24973;47.178;15.316;2022-11-24T09:17:16;7.93;;;3.83;;
21798;SDS011;24973;47.178;15.316;2022-11-24T09:20:05;6.83;;;4.07;;
21798;SDS011;24973;47.178;15.316;2022-11-24T09:22:54;7.27;;;3.13;;
21798;SDS011;24973;47.178;15.316;2022-11-24T09:25:43;3.80;;;2.87;;
21798;SDS011;24973;47.178;15.316;2022-11-24T09:28:32;4.87;;;3.30;;
21798;SDS011;24973;47.178;15.316;2022-11-24T09:31:23;4.47;;;3.67;;
21798;SDS011;24973;47.178;15.316;2022-11-24T09:34:14;5.93;;;3.30;;
21798;SDS011;24973;47.178;15.316;2022-11-24T09:37:04;4.50;;;3.40;;
21798;SDS011;24973;47.178;15.316;2022-11-24T09:39:53;6.63;;;3.37;;
21798;SDS011;24973;47.178;15.316;2022-11-24T09:42:43;7.83;;;3.90;;
21798;SDS011;24973;47.178;15.316;2022-11-24T09:45:45;9.37;;;3.97;;
21798;SDS011;24973;47.178;15.316;2022-11-24T09:48:51;4.07;;;3.30;;
21798;SDS011;24973;47.178;15.316;2022-11-24T09:51:45;3.20;;;2.90;;
21798;SDS011;24973;47.178;15.316;2022-11-24T09:54:36;5.37;;;3.27;;
21798;SDS011;24973;47.178;15.316;2022-11-24T09:57:34;7.57;;;3.30;;
21798;SDS011;24973;47.178;15.316;2022-11-24T10:00:26;1.60;;;1.50;;
21798;SDS011;24973;47.178;15.316;2022-11-24T10:03:18;4.43;;;2.43;;
21798;SDS011;24973;47.178;15.316;2022-11-24T10:06:17;2.10;;;1.90;;
21798;SDS011;24973;47.178;15.316;2022-11-24T10:09:13;3.17;;;2.17;;
21798;SDS011;24973;47.178;15.316;2022-11-24T10:12:19;2.37;;;2.03;;
21798;SDS011;24973;47.178;15.316;2022-11-24T10:15:27;2.33;;;2.07;;
21798;SDS011;24973;47.178;15.316;2022-11-24T10:18:31;2.30;;;2.10;;
21798;SDS011;24973;47.178;15.316;2022-11-24T10:21:42;2.80;;;2.13;;
21798;SDS011;24973;47.178;15.316;2022-11-24T10:24:50;3.27;;;1.60;;
21798;SDS011;24973;47.178;15.316;2022-11-24T10:27:55;2.40;;;1.83;;
21798;SDS011;24973;47.178;15.316;2022-11-24T10:30:47;2.00;;;1.80;;
21798;SDS011;24973;47.178;15.316;2022-11-24T10:33:36;3.30;;;2.00;;
21798;SDS011;24973;47.178;15.316;2022-11-24T10:36:28;5.43;;;2.17;;
21798;SDS011;24973;47.178;15.316;2022-11-24T10:39:30;2.10;;;1.80;;
21798;SDS011;24973;47.178;15.316;2022-11-24T10:42:25;1.50;;;1.40;;
21798;SDS011;24973;47.178;15.316;2022-11-24T10:45:16;2.57;;;1.80;;
21798;SDS011;24973;47.178;15.316;2022-11-24T10:48:10;2.37;;;2.17;;
21798;SDS011;24973;47.178;15.316;2022-11-24T10:51:16;4.93;;;4.43;;
21798;SDS011;24973;47.178;15.316;2022-11-24T10:54:22;6.07;;;1.87;;
21798;SDS011;24973;47.178;15.316;2022-11-24T10:57:23;2.90;;;2.20;;
21798;SDS011;24973;47.178;15.316;2022-11-24T11:00:28;6.00;;;2.17;;
21798;SDS011;24973;47.178;15.316;2022-11-24T11:03:20;4.13;;;2.23;;
21798;SDS011;24973;47.178;15.316;2022-11-24T11:06:12;2.60;;;2.40;;
21798;SDS011;24973;47.178;15.316;2022-11-24T11:09:16;3.23;;;2.20;;
21798;SDS011;24973;47.178;15.316;2022-11-24T11:12:10;5.70;;;3.00;;
21798;SDS011;24973;47.178;15.316;2022-11-24T11:15:22;2.37;;;1.70;;
21798;SDS011;24973;47.178;15.316;2022-11-24T11:18:14;2.93;;;2.30;;
21798;SDS011;24973;47.178;15.316;2022-11-24T11:21:04;3.03;;;2.30;;
21798;SDS011;24973;47.178;15.316;2022-11-24T11:23:53;5.10;;;2.90;;
21798;SDS011;24973;47.178;15.316;2022-11-24T11:26:42;4.13;;;2.70;;
21798;SDS011;24973;47.178;15.316;2022-11-24T11:29:32;2.80;;;2.60;;
21798;SDS011;24973;47.178;15.316;2022-11-24T11:32:49;4.60;;;2.60;;
21798;SDS011;24973;47.178;15.316;2022-11-24T11:36:02;6.43;;;1.80;;
21798;SDS011;24973;47.178;15.316;2022-11-24T11:38:56;2.90;;;1.20;;
21798;SDS011;24973;47.178;15.316;2022-11-24T11:41:46;4.13;;;1.53;;
21798;SDS011;24973;47.178;15.316;2022-11-24T11:44:38;1.87;;;1.10;;
21798;SDS011;24973;47.178;15.316;2022-11-24T11:47:35;2.70;;;1.50;;
21798;SDS011;24973;47.178;15.316;2022-11-24T11:50:37;2.23;;;1.57;;
21798;SDS011;24973;47.178;15.316;2022-11-24T11:53:46;1.80;;;1.60;;
21798;SDS011;24973;47.178;15.316;2022-11-24T11:56:44;3.37;;;1.40;;
21798;SDS011;24973;47.178;15.316;2022-11-24T12:03:12;1.40;;;1.00;;
21798;SDS011;24973;47.178;15.316;2022-11-24T12:06:40;1.10;;;1.00;;
21798;SDS011;24973;47.178;15.316;2022-11-24T12:09:48;2.50;;;1.20;;
21798;SDS011;24973;47.178;15.316;2022-11-24T12:12:50;2.97;;;0.90;;
21798;SDS011;24973;47.178;15.316;2022-11-24T12:15:53;2.80;;;0.70;;
21798;SDS011;24973;47.178;15.316;2022-11-24T12:18:45;3.33;;;0.77;;
21798;SDS011;24973;47.178;15.316;2022-11-24T12:21:51;2.40;;;1.00;;
21798;SDS011;24973;47.178;15.316;2022-11-24T12:24:52;2.67;;;1.20;;
21798;SDS011;24973;47.178;15.316;2022-11-24T12:27:50;3.63;;;1.57;;
21798;SDS011;24973;47.178;15.316;2022-11-24T12:30:57;1.13;;;0.40;;
21798;SDS011;24973;47.178;15.316;2022-11-24T12:34:12;2.80;;;0.53;;
21798;SDS011;24973;47.178;15.316;2022-11-24T12:37:17;0.70;;;0.50;;
21798;SDS011;24973;47.178;15.316;2022-11-24T12:40:40;2.63;;;0.80;;
21798;SDS011;24973;47.178;15.316;2022-11-24T12:44:24;2.87;;;1.03;;
21798;SDS011;24973;47.178;15.316;2022-11-24T12:47:31;2.47;;;1.00;;
21798;SDS011;24973;47.178;15.316;2022-11-24T12:50:32;1.00;;;0.70;;
21798;SDS011;24973;47.178;15.316;2022-11-24T12:53:26;8.20;;;0.80;;
21798;SDS011;24973;47.178;15.316;2022-11-24T12:56:19;1.77;;;0.93;;
21798;SDS011;24973;47.178;15.316;2022-11-24T12:59:25;1.77;;;0.80;;
21798;SDS011;24973;47.178;15.316;2022-11-24T13:02:23;3.87;;;0.90;;
21798;SDS011;24973;47.178;15.316;2022-11-24T13:05:29;1.73;;;1.00;;
21798;SDS011;24973;47.178;15.316;2022-11-24T13:08:22;0.70;;;0.70;;
21798;SDS011;24973;47.178;15.316;2022-11-24T13:11:23;1.93;;;1.00;;
21798;SDS011;24973;47.178;15.316;2022-11-24T13:14:27;2.67;;;1.00;;
21798;SDS011;24973;47.178;15.316;2022-11-24T13:17:23;5.83;;;1.00;;
21798;SDS011;24973;47.178;15.316;2022-11-24T13:20:22;2.07;;;0.80;;
21798;SDS011;24973;47.178;15.316;2022-11-24T13:23:19;1.37;;;0.63;;
21798;SDS011;24973;47.178;15.316;2022-11-24T13:26:13;3.90;;;0.50;;
21798;SDS011;24973;47.178;15.316;2022-11-24T13:29:34;0.70;;;0.53;;
21798;SDS011;24973;47.178;15.316;2022-11-24T13:39:20;0.83;;;0.60;;
21798;SDS011;24973;47.178;15.316;2022-11-24T13:42:09;2.27;;;0.80;;
21798;SDS011;24973;47.178;15.316;2022-11-24T13:44:58;3.00;;;0.97;;
21798;SDS011;24973;47.178;15.316;2022-11-24T13:47:48;2.83;;;0.80;;
21798;SDS011;24973;47.178;15.316;2022-11-24T13:54:08;1.70;;;0.80;;
21798;SDS011;24973;47.178;15.316;2022-11-24T14:00:20;8.07;;;2.27;;
21798;SDS011;24973;47.178;15.316;2022-11-24T14:03:13;4.47;;;2.60;;
21798;SDS011;24973;47.178;15.316;2022-11-24T14:06:12;3.87;;;1.10;;
21798;SDS011;24973;47.178;15.316;2022-11-24T14:09:12;2.07;;;0.77;;
21798;SDS011;24973;47.178;15.316;2022-11-24T14:12:18;1.17;;;1.07;;
21798;SDS011;24973;47.178;15.316;2022-11-24T14:15:18;1.97;;;0.83;;
21798;SDS011;24973;47.178;15.316;2022-11-24T14:18:15;1.97;;;1.00;;
21798;SDS011;24973;47.178;15.316;2022-11-24T14:21:14;3.90;;;1.10;;
21798;SDS011;24973;47.178;15.316;2022-11-24T14:24:18;2.53;;;1.53;;
21798;SDS011;24973;47.178;15.316;2022-11-24T14:27:12;6.53;;;2.17;;
21798;SDS011;24973;47.178;15.316;2022-11-24T14:30:05;7.83;;;2.40;;
21798;SDS011;24973;47.178;15.316;2022-11-24T14:33:08;3.53;;;1.20;;
21798;SDS011;24973;47.178;15.316;2022-11-24T14:35:59;0.67;;;0.67;;
21798;SDS011;24973;47.178;15.316;2022-11-24T14:38:47;2.33;;;1.10;;
21798;SDS011;24973;47.178;15.316;2022-11-24T14:41:37;1.23;;;1.10;;
21798;SDS011;24973;47.178;15.316;2022-11-24T14:44:28;1.37;;;0.80;;
21798;SDS011;24973;47.178;15.316;2022-11-24T14:47:22;3.77;;;1.03;;
21798;SDS011;24973;47.178;15.316;2022-11-24T14:50:16;0.97;;;0.93;;
21798;SDS011;24973;47.178;15.316;2022-11-24T14:53:10;0.90;;;0.87;;
21798;SDS011;24973;47.178;15.316;2022-11-24T14:56:20;5.37;;;1.10;;
21798;SDS011;24973;47.178;15.316;2022-11-24T14:59:21;7.80;;;1.90;;
21798;SDS011;24973;47.178;15.316;2022-11-24T15:08:42;1.63;;;1.40;;
21798;SDS011;24973;47.178;15.316;2022-11-24T15:11:34;5.33;;;1.60;;
21798;SDS011;24973;47.178;15.316;2022-11-24T15:14:35;2.63;;;2.13;;
21798;SDS011;24973;47.178;15.316;2022-11-24T15:17:35;2.40;;;2.00;;
21798;SDS011;24973;47.178;15.316;2022-11-24T15:20:25;11.00;;;2.60;;
21798;SDS011;24973;47.178;15.316;2022-11-24T15:23:21;6.33;;;2.80;;
21798;SDS011;24973;47.178;15.316;2022-11-24T15:26:21;5.17;;;2.77;;
21798;SDS011;24973;47.178;15.316;2022-11-24T15:29:14;4.70;;;2.47;;
21798;SDS011;24973;47.178;15.316;2022-11-24T15:32:09;9.43;;;7.30;;
21798;SDS011;24973;47.178;15.316;2022-11-24T15:35:00;6.57;;;4.77;;
21798;SDS011;24973;47.178;15.316;2022-11-24T15:37:49;9.93;;;5.67;;
21798;SDS011;24973;47.178;15.316;2022-11-24T15:40:38;16.17;;;8.20;;
21798;SDS011;24973;47.178;15.316;2022-11-24T15:43:30;5.47;;;3.63;;
21798;SDS011;24973;47.178;15.316;2022-11-24T15:46:20;3.70;;;3.00;;
21798;SDS011;24973;47.178;15.316;2022-11-24T15:49:11;4.20;;;3.00;;
21798;SDS011;24973;47.178;15.316;2022-11-24T15:51:59;11.03;;;4.50;;
21798;SDS011;24973;47.178;15.316;2022-11-24T15:54:49;33.60;;;14.87;;
21798;SDS011;24973;47.178;15.316;2022-11-24T15:57:40;26.83;;;13.80;;
21798;SDS011;24973;47.178;15.316;2022-11-24T16:00:29;6.10;;;2.93;;
21798;SDS011;24973;47.178;15.316;2022-11-24T16:03:18;6.23;;;3.30;;
21798;SDS011;24973;47.178;15.316;2022-11-24T16:06:28;6.03;;;3.33;;
21798;SDS011;24973;47.178;15.316;2022-11-24T16:09:17;10.87;;;4.67;;
21798;SDS011;24973;47.178;15.316;2022-11-24T16:12:05;6.90;;;4.20;;
21798;SDS011;24973;47.178;15.316;2022-11-24T16:14:55;8.03;;;4.23;;
21798;SDS011;24973;47.178;15.316;2022-11-24T16:17:44;7.57;;;4.30;;
21798;SDS011;24973;47.178;15.316;2022-11-24T16:20:33;12.70;;;5.23;;
21798;SDS011;24973;47.178;15.316;2022-11-24T16:23:24;9.93;;;5.50;;
21798;SDS011;24973;47.178;15.316;2022-11-24T16:26:13;7.20;;;5.17;;
21798;SDS011;24973;47.178;15.316;2022-11-24T16:29:01;10.93;;;5.80;;
21798;SDS011;24973;47.178;15.316;2022-11-24T16:31:50;6.27;;;3.90;;
21798;SDS011;24973;47.178;15.316;2022-11-24T16:34:39;8.13;;;4.87;;
21798;SDS011;24973;47.178;15.316;2022-11-24T16:37:28;5.83;;;3.60;;
21798;SDS011;24973;47.178;15.316;2022-11-24T16:40:19;8.63;;;1.87;;
21798;SDS011;24973;47.178;15.316;2022-11-24T16:43:08;3.80;;;2.40;;
21798;SDS011;24973;47.178;15.316;2022-11-24T16:45:59;10.03;;;2.30;;
21798;SDS011;24973;47.178;15.316;2022-11-24T16:49:02;2.50;;;1.37;;
21798;SDS011;24973;47.178;15.316;2022-11-24T16:51:51;5.73;;;3.37;;
21798;SDS011;24973;47.178;15.316;2022-11-24T16:54:40;2.60;;;1.53;;
21798;SDS011;24973;47.178;15.316;2022-11-24T16:57:30;3.37;;;1.47;;
21798;SDS011;24973;47.178;15.316;2022-11-24T17:00:19;3.00;;;1.87;;
21798;SDS011;24973;47.178;15.316;2022-11-24T17:03:08;6.87;;;1.93;;
21798;SDS011;24973;47.178;15.316;2022-11-24T17:05:57;6.97;;;2.17;;
21798;SDS011;24973;47.178;15.316;2022-11-24T17:08:46;7.40;;;1.70;;
21798;SDS011;24973;47.178;15.316;2022-11-24T17:11:35;2.87;;;1.37;;
21798;SDS011;24973;47.178;15.316;2022-11-24T17:14:25;3.00;;;1.30;;
21798;SDS011;24973;47.178;15.316;2022-11-24T17:17:14;9.20;;;4.13;;
21798;SDS011;24973;47.178;15.316;2022-11-24T17:20:03;5.97;;;3.83;;
21798;SDS011;24973;47.178;15.316;2022-11-24T17:22:54;4.00;;;2.87;;
21798;SDS011;24973;47.178;15.316;2022-11-24T17:25:42;10.33;;;4.40;;
21798;SDS011;24973;47.178;15.316;2022-11-24T17:28:31;4.63;;;3.50;;